Time;durP1;ratioP1;P1;durP2;ratioP2;P2;SDS_P1;SDS_P2;PMS_P1;PMS_P2;Temp;Humidity;BMP_temperature;BMP_pressure;BME280_temperature;BME280_humidity;BME280_pressure;Samples;Min_cycle;Max_cycle;Signal;HPM_P1;HPM_P2
2021/08/21 00:00:06;;;;;;;25.48;21.23;;;19.50;99.90;;;19.98;78.68;101760.56;5029252;28;20045;-71
2021/08/21 00:02:39;;;;;;;25.60;22.20;;;19.50;99.90;;;20.04;78.86;101753.22;5030002;28;20053;-71
2021/08/21 00:05:09;;;;;;;23.33;20.27;;;19.50;99.90;;;20.02;78.57;101754.19;5029516;28;20053;-71
2021/08/21 00:07:38;;;;;;;23.57;20.93;;;19.50;99.90;;;20.01;78.30;101757.81;5029834;28;20061;-71
2021/08/21 00:10:09;;;;;;;21.60;18.35;;;19.50;99.90;;;20.01;78.25;101753.31;5030119;28;20736;-71
2021/08/21 00:12:38;;;;;;;24.73;19.17;;;19.50;99.90;;;20.01;78.06;101742.56;5030369;28;20065;-71
2021/08/21 00:15:12;;;;;;;23.33;19.08;;;19.60;99.90;;;20.02;78.01;101751.50;5029577;28;20045;-71
2021/08/21 00:17:42;;;;;;;34.67;19.40;;;19.60;99.90;;;20.04;78.58;101750.53;5029495;28;20045;-71
2021/08/21 00:20:11;;;;;;;20.83;18.73;;;19.60;99.90;;;19.97;78.44;101745.38;5029965;28;20079;-72
2021/08/21 00:22:40;;;;;;;23.50;19.75;;;19.50;99.90;;;19.98;78.30;101750.69;5029572;28;20045;-71
2021/08/21 00:25:10;;;;;;;29.48;19.25;;;19.50;99.90;;;19.92;77.99;101750.88;5029687;28;20457;-71
2021/08/21 00:27:39;;;;;;;;;;;19.50;99.90;;;19.93;77.83;101749.97;5030642;28;20121;-72
2021/08/21 00:30:09;;;;;;;14.40;13.00;;;19.50;99.90;;;19.86;78.02;101750.19;5030014;28;19928;-71
2021/08/21 00:32:39;;;;;;;16.88;15.18;;;19.40;99.90;;;19.76;78.09;101744.19;5030015;28;20377;-71
2021/08/21 00:35:10;;;;;;;18.42;16.38;;;19.30;99.90;;;19.68;78.07;101744.41;5028446;28;20042;-72
2021/08/21 00:37:38;;;;;;;14.57;13.18;;;19.20;99.90;;;19.66;77.85;101750.75;5029504;28;20440;-71
2021/08/21 00:40:09;;;;;;;14.18;12.05;;;19.20;99.90;;;19.55;78.16;101742.97;5028427;28;20045;-71
2021/08/21 00:42:37;;;;;;;16.25;12.93;;;19.10;99.90;;;19.39;77.73;101738.06;5029727;28;20056;-71
2021/08/21 00:45:07;;;;;;;14.95;13.55;;;18.90;99.90;;;19.33;78.61;101741.81;5029367;28;20120;-71
2021/08/21 00:47:36;;;;;;;19.42;15.35;;;18.90;99.90;;;19.32;79.15;101729.28;5029360;28;20046;-71
2021/08/21 00:50:06;;;;;;;16.80;14.80;;;18.80;99.90;;;19.26;79.37;101734.78;5029614;28;20081;-71
2021/08/21 00:52:36;;;;;;;14.87;12.73;;;18.80;99.90;;;19.17;79.38;101732.34;5029499;28;20050;-71
2021/08/21 00:55:06;;;;;;;23.23;20.00;;;18.70;99.90;;;19.21;79.88;101733.16;5028477;28;20442;-71
2021/08/21 00:57:35;;;;;;;17.23;14.70;;;18.70;99.90;;;19.27;79.89;101741.03;5028242;28;20053;-71
2021/08/21 01:00:06;;;;;;;16.30;14.65;;;18.70;99.90;;;19.12;79.07;101718.19;5029261;28;20469;-71
2021/08/21 01:02:36;;;;;;;22.77;20.48;;;18.80;99.90;;;19.22;79.11;101740.28;5028442;28;20064;-72
2021/08/21 01:05:08;;;;;;;27.15;20.10;;;18.80;99.90;;;19.10;79.09;101736.13;5029316;28;20046;-71
2021/08/21 01:07:38;;;;;;;21.38;17.08;;;18.70;99.90;;;19.04;78.96;101727.34;5027536;28;20068;-70
2021/08/21 01:10:11;;;;;;;20.50;15.82;;;18.60;99.90;;;19.09;78.87;101738.81;5027860;28;20103;-71
2021/08/21 01:12:45;;;;;;;24.08;16.30;;;18.60;99.90;;;19.05;79.25;101731.81;5030771;28;20147;-70
2021/08/21 01:15:14;;;;;;;16.02;14.00;;;18.60;99.90;;;18.99;78.90;101732.81;5030851;28;20055;-71
2021/08/21 01:17:44;;;;;;;13.55;12.25;;;18.50;99.90;;;18.86;78.16;101726.88;5031131;28;20052;-71
2021/08/21 01:20:13;;;;;;;13.18;11.98;;;18.40;99.90;;;18.79;78.11;101722.56;5031110;28;20053;-71
2021/08/21 01:22:44;;;;;;;14.88;12.70;;;18.30;99.90;;;18.82;78.32;101735.03;5031089;28;20488;-70
2021/08/21 01:25:24;;;;;;;14.05;12.27;;;18.30;99.90;;;18.78;78.86;101725.28;5031022;28;20045;-71
2021/08/21 01:27:56;;;;;;;12.30;11.10;;;18.30;99.90;;;18.78;78.70;101730.66;5030971;28;20046;-72
2021/08/21 01:30:43;;;;;;;10.05;9.15;;;18.30;99.90;;;18.74;77.99;101732.53;5031179;28;20057;-71
2021/08/21 01:33:33;;;;;;;9.90;8.90;;;18.30;99.90;;;18.68;78.59;101724.63;5031415;28;20057;-70
2021/08/21 01:36:03;;;;;;;14.73;12.32;;;18.20;99.90;;;18.56;79.03;101711.53;5030867;28;20053;-71
2021/08/21 01:38:32;;;;;;;24.23;17.58;;;18.20;99.90;;;18.77;79.65;101729.81;5030836;28;20063;-70
2021/08/21 01:41:37;;;;;;;18.70;15.27;;;18.20;99.90;;;18.92;80.14;101732.09;5031699;28;20049;-70
2021/08/21 01:44:10;;;;;;;17.38;15.27;;;18.40;99.90;;;18.96;79.64;101732.00;5032628;28;20046;-70
2021/08/21 01:46:38;;;;;;;24.58;20.42;;;18.40;99.90;;;19.03;79.87;101731.81;5032617;28;20109;-70
2021/08/21 01:49:11;;;;;;;19.42;17.35;;;18.50;99.90;;;19.03;79.77;101730.97;5032361;28;20036;-70
2021/08/21 01:51:43;;;;;;;13.27;11.75;;;18.50;99.90;;;18.87;78.97;101725.09;5031365;28;20140;-71
2021/08/21 01:54:15;;;;;;;26.15;19.67;;;18.40;99.90;;;18.93;79.62;101722.22;5031342;28;20098;-70
2021/08/21 01:56:46;;;;;;;32.25;26.85;;;18.40;99.90;;;19.00;82.30;101731.00;5030984;28;20060;-71
2021/08/21 01:59:34;;;;;;;31.60;25.92;;;18.50;99.90;;;19.03;83.51;101725.59;5031196;28;20042;-70
2021/08/21 02:02:18;;;;;;;33.47;25.85;;;18.50;99.90;;;19.08;84.29;101723.66;5031176;28;20053;-72
2021/08/21 02:05:13;;;;;;;29.05;24.40;;;18.60;99.90;;;19.18;84.29;101727.88;5033687;28;20504;-71
2021/08/21 02:07:41;;;;;;;30.70;25.65;;;18.60;99.90;;;19.13;84.47;101719.03;5030824;28;20060;-71
2021/08/21 02:10:12;;;;;;;31.17;25.40;;;18.60;99.90;;;19.17;84.09;101728.78;5031114;28;20052;-71
2021/08/21 02:12:40;;;;;;;30.73;24.85;;;18.70;99.90;;;19.16;84.54;101729.72;5030958;28;20335;-71
2021/08/21 02:15:15;;;;;;;33.08;25.90;;;18.70;99.90;;;19.07;84.55;101714.72;5030636;28;20042;-71
2021/08/21 02:17:49;;;;;;;34.42;26.45;;;18.60;99.90;;;19.05;84.98;101719.25;5030908;28;20054;-71
2021/08/21 02:20:36;;;;;;;34.55;28.77;;;18.60;99.90;;;19.02;85.19;101716.66;5031866;28;20041;-71
2021/08/21 02:23:09;;;;;;;39.20;29.75;;;18.50;99.90;;;19.06;85.25;101721.03;5030329;28;20385;-71
2021/08/21 02:25:38;;;;;;;37.00;29.23;;;18.50;99.90;;;19.08;85.18;101720.97;5031754;28;20041;-70
2021/08/21 02:28:09;;;;;;;35.30;28.90;;;18.60;99.90;;;19.07;85.20;101725.44;5030587;28;20068;-71
2021/08/21 02:30:42;;;;;;;36.92;29.88;;;18.60;99.90;;;19.15;85.14;101723.47;5030701;28;20060;-71
2021/08/21 02:33:10;;;;;;;39.08;30.45;;;18.60;99.90;;;19.16;85.01;101719.88;5031928;28;20054;-70
2021/08/21 02:35:40;;;;;;;37.45;29.38;;;18.70;99.90;;;19.22;84.80;101724.19;5031790;28;20065;-71
2021/08/21 02:38:10;;;;;;;33.05;26.75;;;18.70;99.90;;;19.23;84.56;101728.63;5030910;28;20053;-71
2021/08/21 02:40:38;;;;;;;35.15;27.75;;;18.70;99.90;;;19.22;84.39;101719.69;5032092;28;20128;-71
2021/08/21 02:43:09;;;;;;;37.53;28.67;;;18.70;99.90;;;19.06;84.61;101693.31;5030587;28;20488;-70
2021/08/21 02:45:39;;;;;;;34.05;27.50;;;18.70;99.90;;;19.20;84.54;101715.31;5031714;28;20090;-70
2021/08/21 02:48:08;;;;;;;36.03;26.35;;;18.70;99.90;;;19.22;84.33;101708.09;5031319;28;20078;-70
2021/08/21 02:50:36;;;;;;;17.08;15.25;;;18.70;99.90;;;19.17;83.62;101710.88;5031616;28;20069;-70
2021/08/21 02:53:05;;;;;;;31.90;25.17;;;18.70;99.90;;;19.18;83.89;101717.16;5031611;28;20045;-70
2021/08/21 02:55:34;;;;;;;36.55;27.30;;;18.70;99.90;;;19.12;84.12;101709.25;5030314;28;20130;-70
2021/08/21 02:58:03;;;;;;;41.53;30.17;;;18.60;99.90;;;18.98;84.91;101698.00;5030237;28;20053;-70
2021/08/21 03:00:41;;;;;;;43.22;31.08;;;18.50;99.90;;;18.87;85.50;101695.59;5030285;28;20133;-70
2021/08/21 03:03:12;;;;;;;40.72;30.98;;;18.50;99.90;;;18.82;86.36;101698.38;5030267;28;20487;-70
2021/08/21 03:05:45;;;;;;;42.30;31.55;;;18.40;99.90;;;18.93;86.58;101696.31;5030093;28;20049;-71
2021/08/21 03:08:14;;;;;;;47.38;34.47;;;18.40;99.90;;;18.93;86.83;101696.31;5029790;28;20053;-70
2021/08/21 03:10:47;;;;;;;44.65;32.13;;;18.40;99.90;;;18.86;87.52;101710.81;5030107;28;20041;-70
2021/08/21 03:13:16;;;;;;;42.00;31.65;;;18.40;99.90;;;19.00;87.21;101691.69;5030006;28;20385;-71
2021/08/21 03:15:46;;;;;;;46.42;32.67;;;18.50;99.90;;;19.06;86.66;101698.69;5030200;28;20050;-71
2021/08/21 03:18:15;;;;;;;45.03;33.13;;;18.60;99.90;;;18.91;87.25;101695.47;5031193;28;20041;-71
2021/08/21 03:20:48;;;;;;;46.78;32.47;;;18.40;99.90;;;18.86;87.57;101688.47;5029937;28;20328;-71
2021/08/21 03:23:17;;;;;;;45.25;32.38;;;18.40;99.90;;;18.99;87.37;101697.94;5029819;28;20568;-70
2021/08/21 03:25:45;;;;;;;42.40;32.45;;;18.50;99.90;;;19.16;86.72;101695.72;5029846;28;20090;-71
2021/08/21 03:28:14;;;;;;;44.58;33.80;;;18.70;99.90;;;19.26;86.36;101694.53;5029417;28;20133;-70
2021/08/21 03:30:43;;;;;;;44.65;32.13;;;18.80;99.90;;;19.34;85.94;101692.56;5029727;28;20053;-70
2021/08/21 03:33:22;;;;;;;43.20;31.02;;;18.90;99.90;;;19.45;85.43;101689.59;5029797;28;20071;-71
2021/08/21 03:35:51;;;;;;;31.13;24.63;;;19.00;99.90;;;19.54;84.88;101692.03;5028514;28;20052;-71
2021/08/21 03:38:19;;;;;;;37.67;28.08;;;19.10;99.90;;;19.58;84.01;101696.38;5029678;28;20456;-71
2021/08/21 03:41:13;;;;;;;37.97;27.08;;;19.20;99.90;;;19.48;83.97;101694.88;5029662;28;20140;-71
2021/08/21 03:43:53;;;;;;;33.45;25.10;;;19.00;99.90;;;19.53;83.84;101687.59;5029631;28;20181;-71
2021/08/21 03:46:22;;;;;;;32.22;26.13;;;19.10;99.90;;;19.53;83.26;101683.06;5029554;28;20041;-71
2021/08/21 03:48:53;;;;;;;35.03;26.38;;;19.10;99.90;;;19.54;82.91;101686.66;5029429;28;20492;-72
2021/08/21 03:51:22;;;;;;;36.95;27.55;;;19.10;99.90;;;19.58;82.61;101691.00;5029525;28;20049;-72
2021/08/21 03:53:52;;;;;;;39.38;28.27;;;19.10;99.90;;;19.59;82.43;101690.97;5029569;28;20383;-72
2021/08/21 03:56:21;;;;;;;35.60;28.17;;;19.20;99.90;;;19.62;82.44;101690.00;5029348;28;20055;-71
2021/08/21 03:58:55;;;;;;;35.38;27.40;;;19.20;99.90;;;19.69;82.35;101694.25;5029615;28;20045;-71
2021/08/21 04:01:23;;;;;;;34.78;28.10;;;19.30;99.90;;;19.69;82.54;101705.91;5029597;28;20046;-71
2021/08/21 04:04:01;;;;;;;35.08;27.58;;;19.30;99.90;;;19.68;82.31;101697.88;5029318;28;20533;-71
2021/08/21 04:06:33;;;;;;;35.13;26.42;;;19.20;99.90;;;19.73;81.97;101690.56;5028957;28;20049;-71
2021/08/21 04:09:02;;;;;;;33.92;27.15;;;19.30;99.90;;;19.74;81.83;101695.03;5029006;28;20061;-70
2021/08/21 04:11:36;;;;;;;39.15;28.70;;;19.30;99.90;;;19.72;81.92;101695.06;5029251;28;20086;-71
2021/08/21 04:14:10;;;;;;;36.55;29.15;;;19.40;99.90;;;19.76;81.85;101698.56;5029144;28;20060;-71
2021/08/21 04:16:39;;;;;;;36.78;27.60;;;19.40;99.90;;;19.78;81.71;101689.50;5030611;28;20057;-71
2021/08/21 04:19:09;;;;;;;36.88;28.33;;;19.40;99.90;;;19.78;81.61;101691.34;5030419;28;20038;-71
2021/08/21 04:21:40;;;;;;;37.65;28.40;;;19.40;99.90;;;19.81;81.67;101685.88;5029127;28;20061;-72
2021/08/21 04:24:32;;;;;;;37.65;28.63;;;19.40;99.90;;;19.77;81.71;101700.31;5001646;28;20408;-72
2021/08/21 04:27:04;;;;;;;39.85;29.00;;;19.40;99.90;;;19.66;81.94;101692.56;5029082;28;20052;-72
2021/08/21 04:29:35;;;;;;;40.92;29.15;;;19.30;99.90;;;19.72;81.88;101697.75;5029175;28;20053;-72
2021/08/21 04:32:05;;;;;;;36.90;27.45;;;19.30;99.90;;;19.74;82.09;101697.72;5028877;28;20442;-72
2021/08/21 04:34:36;;;;;;;37.80;29.85;;;19.30;99.90;;;19.77;81.98;101701.19;5029116;28;20414;-72
2021/08/21 04:37:10;;;;;;;39.53;28.45;;;19.40;99.90;;;19.74;82.04;101692.34;5028959;28;20050;-71
2021/08/21 04:39:41;;;;;;;35.55;27.85;;;19.40;99.90;;;19.78;82.05;101686.81;5028870;28;20496;-72
2021/08/21 04:42:13;;;;;;;38.28;29.08;;;19.40;99.90;;;19.61;81.93;101678.38;5028845;28;20047;-72
2021/08/21 04:44:42;;;;;;;38.67;28.17;;;19.40;99.90;;;19.64;82.46;101696.22;5028757;28;20077;-72
2021/08/21 04:47:12;;;;;;;41.53;29.05;;;19.20;99.90;;;19.57;82.76;101684.75;5031316;28;20034;-72
2021/08/21 04:49:44;;;;;;;;;;;19.20;99.90;;;19.59;82.82;101692.75;5032868;28;20052;-71
2021/08/21 04:52:13;;;;;;;38.95;28.50;;;19.30;99.90;;;19.64;82.83;101688.16;5032162;28;19947;-72
2021/08/21 04:54:42;;;;;;;39.72;28.52;;;19.30;99.90;;;19.67;82.84;101691.63;5032377;28;20088;-71
2021/08/21 04:57:13;;;;;;;42.92;30.85;;;19.30;99.90;;;19.69;82.56;101694.25;5032199;28;20054;-71
2021/08/21 04:59:47;;;;;;;42.58;30.95;;;19.30;99.90;;;19.74;82.54;101692.34;5032378;28;20052;-71
2021/08/21 05:02:15;;;;;;;44.33;32.28;;;19.30;99.90;;;19.59;82.69;101699.03;5032233;28;20515;-71
2021/08/21 05:04:46;;;;;;;44.88;32.75;;;19.20;99.90;;;19.46;83.54;101694.94;5031902;28;20114;-71
2021/08/21 05:07:14;;;;;;;48.13;33.85;;;19.10;99.90;;;19.39;84.03;101695.13;5032243;28;20060;-71
2021/08/21 05:09:48;;;;;;;44.40;33.38;;;19.10;99.90;;;19.45;83.90;101703.03;5033304;28;20049;-71
2021/08/21 05:12:21;;;;;;;47.97;33.67;;;19.10;99.90;;;19.55;84.03;101709.91;5031940;28;20495;-71
2021/08/21 05:15:08;;;;;;;46.10;32.13;;;19.10;99.90;;;19.61;83.74;101704.34;5031971;28;20099;-71
2021/08/21 05:17:38;;;;;;;46.05;34.10;;;19.20;99.90;;;19.48;83.73;101679.66;5031903;28;20053;-71
2021/08/21 05:20:29;;;;;;;46.28;33.22;;;19.20;99.90;;;19.68;83.57;101711.31;5031868;28;20126;-72
2021/08/21 05:23:15;;;;;;;47.17;33.33;;;19.30;99.90;;;19.75;83.36;101710.19;5032010;28;20054;-72
2021/08/21 05:25:46;;;;;;;45.50;33.90;;;19.40;99.90;;;19.71;83.46;101705.84;5032747;28;20481;-71
2021/08/21 05:28:17;;;;;;;47.97;34.55;;;19.40;99.90;;;19.75;83.45;101715.56;5031529;28;20049;-71
2021/08/21 05:30:48;;;;;;;46.40;34.42;;;19.40;99.90;;;19.10;83.77;101625.25;5031885;28;20060;-71
2021/08/21 05:33:19;;;;;;;49.70;35.58;;;19.30;99.90;;;19.57;84.33;101710.72;5031557;28;20054;-72
2021/08/21 05:35:51;;;;;;;53.17;37.72;;;19.20;99.90;;;19.46;84.53;101696.72;5032624;28;20052;-71
2021/08/21 05:38:20;;;;;;;51.40;36.65;;;19.20;99.90;;;19.48;85.07;101708.28;5032309;28;20090;-72
2021/08/21 05:40:48;;;;;;;49.95;37.03;;;19.20;99.90;;;19.37;85.67;101707.72;5032303;28;20065;-71
2021/08/21 05:43:17;;;;;;;52.60;37.03;;;19.10;99.90;;;19.45;85.90;101706.56;5030852;28;20111;-71
2021/08/21 05:45:45;;;;;;;53.72;37.75;;;19.10;99.90;;;19.26;86.05;101704.41;5032210;28;20476;-72
2021/08/21 05:48:14;;;;;;;59.10;39.70;;;19.00;99.90;;;19.31;86.69;101708.72;5032172;28;20395;-71
2021/08/21 05:50:42;;;;;;;59.05;39.95;;;19.00;99.90;;;19.46;86.52;101711.03;5031957;28;20130;-71
2021/08/21 05:53:12;;;;;;;54.88;38.28;;;19.10;99.90;;;19.46;86.53;101705.66;5032545;28;20042;-72
2021/08/21 05:55:41;;;;;;;52.97;37.88;;;19.10;99.90;;;19.58;86.39;101707.13;5032892;28;20533;-72
2021/08/21 05:58:15;;;;;;;52.75;37.05;;;19.20;99.90;;;19.73;86.21;101714.72;5030275;28;20042;-72
2021/08/21 06:00:48;;;;;;;55.05;38.85;;;19.30;99.90;;;19.79;85.88;101711.88;5032367;28;20061;-73
2021/08/21 06:03:18;;;;;;;51.15;36.60;;;19.40;99.90;;;19.74;86.07;101714.69;5031891;28;20067;-72
2021/08/21 06:05:47;;;;;;;54.47;37.80;;;19.40;99.90;;;19.69;86.44;101710.38;5031781;28;20045;-72
2021/08/21 06:08:17;;;;;;;59.07;38.07;;;19.40;99.90;;;19.66;86.78;101715.84;5030616;28;20085;-73
2021/08/21 06:10:51;;;;;;;52.83;37.28;;;19.40;99.90;;;19.63;87.75;101707.84;5031097;28;20055;-73
2021/08/21 06:13:21;;;;;;;55.90;38.42;;;19.30;99.90;;;19.88;87.75;101710.75;5031051;28;20049;-73
2021/08/21 06:15:49;;;;;;;55.40;38.45;;;19.50;99.90;;;19.93;87.69;101717.75;5031831;28;20042;-73
2021/08/21 06:18:18;;;;;;;53.05;38.22;;;19.60;99.90;;;20.09;87.27;101716.34;5031993;28;20040;-73
2021/08/21 06:20:46;;;;;;;54.13;37.80;;;19.70;99.90;;;20.04;87.38;101718.28;5032067;28;20574;-74
2021/08/21 06:23:15;;;;;;;50.17;36.03;;;19.70;99.90;;;19.91;87.58;101722.28;5032125;28;20084;-73
2021/08/21 06:25:44;;;;;;;50.22;36.40;;;19.60;99.90;;;19.85;87.65;101721.56;5031994;28;20465;-72
2021/08/21 06:28:13;;;;;;;51.50;36.83;;;19.50;99.90;;;20.04;87.40;101723.66;5031788;28;20118;-71
2021/08/21 06:30:41;;;;;;;51.53;36.88;;;19.60;99.90;;;20.18;86.78;101726.88;5031805;28;20132;-72
2021/08/21 06:33:10;;;;;;;49.03;35.92;;;19.70;99.90;;;20.12;86.63;101729.69;5031642;28;20136;-72
2021/08/21 06:35:38;;;;;;;49.33;35.95;;;19.80;99.90;;;20.12;86.68;101718.06;5032077;28;20061;-72
2021/08/21 06:38:06;;;;;;;47.40;34.30;;;19.70;99.90;;;20.03;87.16;101716.53;5032158;28;20090;-72
2021/08/21 06:40:35;;;;;;;49.42;37.47;;;19.70;99.90;;;19.57;87.13;101612.28;5031828;28;20037;-71
2021/08/21 06:43:05;;;;;;;49.45;35.92;;;19.80;99.90;;;20.33;86.59;101723.69;5031428;28;20551;-72
2021/08/21 06:45:49;;;;;;;46.90;34.85;;;19.90;99.90;;;20.45;85.95;101722.44;5031640;28;20058;-73
2021/08/21 06:48:17;;;;;;;48.47;35.75;;;20.10;99.90;;;20.35;85.83;101715.59;5031610;28;20083;-72
2021/08/21 06:50:46;;;;;;;50.53;35.17;;;20.10;99.90;;;20.39;85.87;101719.94;5030283;28;20407;-70
2021/08/21 06:53:15;;;;;;;52.40;37.17;;;20.10;99.90;;;20.39;86.02;101725.31;5031387;28;20135;-70
2021/08/21 06:55:43;;;;;;;53.28;37.92;;;20.10;99.90;;;20.48;85.79;101720.53;5031350;28;20053;-71
2021/08/21 06:58:13;;;;;;;46.35;34.80;;;20.10;99.90;;;20.64;85.56;101724.50;5031923;28;20145;-70
2021/08/21 07:00:43;;;;;;;46.38;34.03;;;20.30;99.90;;;20.74;85.49;101722.38;5031426;28;20124;-74
2021/08/21 07:03:12;;;;;;;48.78;35.10;;;20.40;99.90;;;20.87;84.96;101737.19;5031344;28;20049;-78
2021/08/21 07:05:41;;;;;;;44.55;33.40;;;20.50;99.90;;;20.95;85.11;101727.06;5029960;28;20488;-72
2021/08/21 07:08:10;;;;;;;45.78;32.97;;;20.60;99.90;;;20.79;85.23;101724.94;5030775;28;20071;-69
2021/08/21 07:10:39;;;;;;;47.90;34.75;;;20.50;99.90;;;20.49;87.00;101721.41;5031057;28;20041;-71
2021/08/21 07:13:08;;;;;;;47.78;34.35;;;20.20;99.90;;;20.13;88.78;101718.00;5031189;28;20038;-72
2021/08/21 07:15:38;;;;;;;47.47;33.88;;;19.90;99.90;;;19.95;89.92;101715.88;5029459;28;20084;-71
2021/08/21 07:18:06;;;;;;;45.00;33.20;;;19.70;99.90;;;20.04;90.03;101718.28;5031124;28;20045;-72
2021/08/21 07:20:35;;;;;;;44.70;32.42;;;19.60;99.90;;;20.11;90.07;101713.63;5031152;28;20400;-71
2021/08/21 07:23:04;;;;;;;39.83;29.85;;;19.70;99.90;;;20.10;90.06;101712.75;5030666;28;20211;-72
2021/08/21 07:25:32;;;;;;;43.28;31.63;;;19.70;99.90;;;20.04;90.88;101712.91;5030786;28;20050;-74
2021/08/21 07:28:01;;;;;;;44.05;32.55;;;19.60;99.90;;;20.18;90.31;101710.75;5030724;28;20064;-73
2021/08/21 07:30:29;;;;;;;45.78;33.25;;;19.80;99.90;;;20.12;90.72;101708.19;5029590;28;20496;-72
2021/08/21 07:32:59;;;;;;;47.42;32.72;;;19.80;99.90;;;20.42;90.85;101709.97;5030960;28;20479;-73
2021/08/21 07:35:27;;;;;;;43.27;30.63;;;20.00;99.90;;;20.45;89.43;101707.19;5030795;28;20045;-74
2021/08/21 07:37:56;;;;;;;44.25;29.80;;;20.10;99.90;;;20.62;89.12;101699.47;5030647;28;20050;-73
2021/08/21 07:40:24;;;;;;;42.55;30.23;;;20.20;99.90;;;20.60;89.03;101698.63;5029488;28;20440;-75
2021/08/21 07:42:52;;;;;;;40.97;28.90;;;20.30;99.90;;;20.80;89.44;101705.16;5030402;28;20089;-73
2021/08/21 07:45:21;;;;;;;38.47;26.90;;;20.40;99.90;;;20.82;86.25;101712.25;5029543;28;20132;-75
2021/08/21 07:47:51;;;;;;;37.03;27.63;;;20.50;99.90;;;20.78;86.78;101707.91;5030502;28;20037;-74
2021/08/21 07:50:22;;;;;;;33.13;24.73;;;20.50;99.90;;;20.73;85.06;101707.16;5030599;28;20046;-75
2021/08/21 07:52:50;;;;;;;31.77;24.77;;;20.40;99.90;;;20.93;84.14;101706.50;5030641;28;20484;-73
2021/08/21 07:55:19;;;;;;;30.42;22.67;;;20.60;99.90;;;21.25;83.02;101707.19;5030461;28;20375;-72
2021/08/21 07:57:47;;;;;;;30.85;23.90;;;20.80;99.90;;;21.28;81.99;101711.59;5030833;28;20069;-75
2021/08/21 08:00:17;;;;;;;27.92;21.50;;;20.90;99.90;;;21.32;81.24;101710.56;5030227;28;20045;-72
2021/08/21 08:02:46;;;;;;;27.23;22.13;;;20.90;99.90;;;21.26;81.77;101705.41;5030558;28;20045;-75
2021/08/21 08:05:14;;;;;;;26.50;21.17;;;20.90;99.90;;;21.58;80.90;101715.03;5030644;28;20054;-69
2021/08/21 08:07:44;;;;;;;28.70;22.10;;;21.10;99.90;;;21.89;80.18;101724.63;5029576;28;20073;-69
2021/08/21 08:10:13;;;;;;;23.98;19.98;;;21.40;99.90;;;22.00;77.35;101721.56;5029937;28;20073;-68
2021/08/21 08:12:41;;;;;;;24.30;18.80;;;21.60;99.90;;;22.03;76.58;101727.69;5030054;28;20072;-68
2021/08/21 08:15:11;;;;;;;25.40;18.80;;;21.70;99.90;;;21.94;76.35;101724.47;5030278;28;20041;-69
2021/08/21 08:17:40;;;;;;;21.55;18.88;;;21.60;99.90;;;21.89;75.92;101721.09;5030225;28;20420;-67
2021/08/21 08:20:10;;;;;;;22.15;18.98;;;21.50;99.90;;;21.77;76.96;101718.81;5029801;28;20041;-68
2021/08/21 08:22:39;;;;;;;23.20;19.77;;;21.40;99.90;;;21.83;75.57;101715.91;5028733;28;20045;-69
2021/08/21 08:25:10;;;;;;;24.15;18.98;;;21.50;99.90;;;22.09;76.00;101727.47;5028551;28;20132;-66
2021/08/21 08:27:40;;;;;;;22.90;20.30;;;21.60;99.90;;;22.11;74.44;101720.19;5030130;28;20049;-69
2021/08/21 08:30:10;;;;;;;23.25;18.35;;;21.70;99.90;;;22.05;73.15;101719.53;5029792;28;20045;-68
2021/08/21 08:32:39;;;;;;;24.73;19.33;;;21.70;99.90;;;21.99;74.61;101720.66;5030546;28;20102;-67
2021/08/21 08:35:08;;;;;;;22.73;18.42;;;21.60;99.90;;;21.98;74.84;101716.22;5029912;28;20200;-67
2021/08/21 08:37:36;;;;;;;25.08;18.77;;;21.70;99.90;;;21.95;74.43;101719.00;5030310;28;20057;-66
2021/08/21 08:40:08;;;;;;;21.73;17.85;;;21.60;99.90;;;21.93;75.25;101718.19;5029794;28;20492;-67
2021/08/21 08:42:41;;;;;;;22.60;17.90;;;21.60;99.90;;;22.06;74.58;101718.63;5029838;28;20496;-67
2021/08/21 08:45:11;;;;;;;25.55;18.23;;;21.70;99.90;;;21.98;74.64;101720.72;5030392;28;20046;-67
2021/08/21 08:47:40;;;;;;;;;;;21.60;99.90;;;22.10;74.46;101721.16;5030133;28;20495;-69
2021/08/21 08:50:11;;;;;;;22.27;17.02;;;21.70;99.90;;;22.34;74.45;101724.69;5029594;28;20005;-69
2021/08/21 08:52:40;;;;;;;21.33;17.33;;;21.90;99.90;;;22.38;74.86;101727.22;5030199;28;20073;-69
2021/08/21 08:55:12;;;;;;;19.30;16.20;;;22.00;99.90;;;22.56;74.88;101728.31;5029654;28;20069;-68
2021/08/21 08:57:43;;;;;;;19.85;16.20;;;22.10;99.90;;;22.63;74.15;101726.28;5029711;28;20041;-67
2021/08/21 09:00:14;;;;;;;16.27;13.82;;;22.20;99.90;;;23.01;73.26;101734.56;5029809;28;20096;-68
2021/08/21 09:02:45;;;;;;;19.35;15.00;;;22.60;99.90;;;23.14;70.93;101727.69;5029773;28;20090;-68
2021/08/21 09:05:16;;;;;;;18.10;14.00;;;22.80;99.90;;;23.25;71.30;101724.53;5029473;28;20056;-68
2021/08/21 09:07:49;;;;;;;16.80;13.93;;;22.90;99.90;;;23.22;70.13;101730.94;5029633;28;20053;-69
2021/08/21 09:10:22;;;;;;;20.40;13.80;;;22.80;99.90;;;23.33;69.64;101725.09;5029413;28;20048;-69
2021/08/21 09:13:03;;;;;;;20.25;14.18;;;23.00;99.90;;;23.29;69.01;101724.34;5029699;28;20068;-69
2021/08/21 09:15:35;;;;;;;17.80;14.30;;;23.00;99.90;;;23.44;68.94;101730.91;5028942;28;20545;-68
2021/08/21 09:18:08;;;;;;;18.27;13.65;;;23.10;99.90;;;23.46;68.56;101712.81;5029502;28;20033;-68
2021/08/21 09:20:59;;;;;;;17.23;15.43;;;23.20;99.90;;;23.34;69.17;101716.06;5029599;28;20098;-68
2021/08/21 09:23:31;;;;;;;16.92;14.60;;;23.10;99.90;;;23.57;68.98;101715.94;5029547;28;20061;-68
2021/08/21 09:26:12;;;;;;;17.85;15.68;;;23.20;99.90;;;23.38;68.33;101717.69;5029191;28;20503;-68
2021/08/21 09:28:43;;;;;;;14.75;13.00;;;23.10;99.90;;;23.84;69.29;101720.09;5029676;28;20042;-67
2021/08/21 09:31:13;;;;;;;16.00;12.18;;;23.40;99.90;;;24.10;67.30;101725.19;5029046;28;20042;-67
2021/08/21 09:33:44;;;;;;;17.92;13.20;;;23.80;99.90;;;24.15;66.44;101716.88;5030719;28;20071;-68
2021/08/21 09:36:13;;;;;;;17.67;14.38;;;23.90;99.90;;;24.27;65.71;101726.25;5032106;28;20041;-67
2021/08/21 09:38:42;;;;;;;17.40;14.23;;;24.00;99.90;;;24.55;64.69;101713.13;5032206;28;20072;-71
2021/08/21 09:41:12;;;;;;;16.30;12.68;;;24.30;99.90;;;24.79;65.39;101714.69;5032403;28;20449;-68
2021/08/21 09:43:40;;;;;;;14.83;12.70;;;24.50;99.90;;;25.00;64.14;101722.63;5032480;28;20476;-69
2021/08/21 09:46:15;;;;;;;17.77;14.45;;;24.80;99.90;;;24.70;64.43;101717.81;5032499;28;20367;-68
2021/08/21 09:49:00;;;;;;;18.45;14.55;;;24.40;99.90;;;24.90;63.48;101718.59;5032356;28;20517;-68
2021/08/21 09:51:43;;;;;;;16.42;12.60;;;24.60;99.90;;;24.68;63.27;101717.03;5032394;28;20037;-67
2021/08/21 09:54:15;;;;;;;15.07;13.13;;;24.50;99.90;;;24.50;65.40;101720.63;5032564;28;20033;-68
2021/08/21 09:56:47;;;;;;;16.23;14.20;;;24.20;99.90;;;24.87;64.43;101716.03;5032581;28;20086;-69
2021/08/21 09:59:16;;;;;;;18.25;14.48;;;24.50;99.90;;;24.78;63.82;101713.81;5031872;28;20050;-68
2021/08/21 10:01:46;;;;;;;19.90;16.10;;;24.50;99.90;;;25.08;64.30;101714.09;5032050;28;20408;-68
2021/08/21 10:04:15;;;;;;;23.63;16.17;;;24.80;99.90;;;25.32;62.34;101717.38;5032456;28;20076;-68
2021/08/21 10:06:44;;;;;;;18.60;15.88;;;25.00;99.90;;;25.58;61.37;101709.66;5032427;28;20074;-80
2021/08/21 10:09:12;;;;;;;20.85;16.83;;;25.30;99.90;;;25.73;60.22;101714.25;5031704;28;20566;-79
2021/08/21 10:11:42;;;;;;;20.35;17.15;;;25.50;99.90;;;25.66;60.02;101710.13;5031970;28;20038;-73
2021/08/21 10:14:13;;;;;;;20.75;15.82;;;25.50;99.90;;;25.67;60.31;101711.00;5031936;28;20045;-73
2021/08/21 10:16:43;;;;;;;;;;;25.40;99.90;;;25.60;59.76;101712.28;5032285;28;20065;-67